Accueil
METAR-TAF:

METAR-TAF

Aéroports :

Aéroport international de Bâle-Mulhouse-Fribourg

Bâle-Mulhouse, France

latitude: 47-36N, longitude: 007-31E, altitude: 270 m

Observation

Le bulletin a été fait il y a 28 minutes, à 15:30 UTC
Vent 5 kt de nord, variant entre ouest/nord-ouest et nord/nord-est
Température 19°C
Humidité 64%
Pression 1020 hPa
Visibilité 10 km ou plus
Quelques nuages à une hauteur de 3300 ft
Nuages fragmentés à une hauteur de 23000 ft

METAR: LFSB 281530Z 35005KT 290V020 9999 FEW033 BKN230 19/12 Q1020 NOSIG

Heure: 17:58 (15:58 UTC)

Prévision

Le bulletin a été fait il y a 4 heures et 58 minutes, à 11:00 UTC
Prévision valable du 28 à 12 UTC au 29 à 12 UTC
Vent 5 kt de nord
Visibilité 10 km ou plus
Quelques nuages à une hauteur de 4000 ft
Nuages fragmentés à une hauteur de 25000 ft

TAF: LFSB 281100Z 2812/2912 36005KT 9999 FEW040 BKN250

Observations et prévisions météorologiques de plus de 4000 aéroports (messages METAR et TAF).

Les stations disponibles sont représentées par des disques jaunes et rouges sur la carte.

Passer la souris dessus pour voir le nom de la station.

Cliquer dessus pour voir les observations et prévisions météorologiques.

Pour changer de carte: cliquez sur les boutons verts avec une croix noire pour zoomer, sur le bouton vert avec un tiret pour effectuer un zoom arrière, ou sur les flèches vertes pour les cartes adjacentes.


METAR-TAF: